createdAt,value
2023-02-21T00:00:52.226Z,99826.55
2023-02-21T00:03:27.156Z,99827.10
2023-02-21T00:05:58.586Z,99827.47
2023-02-21T00:08:30.090Z,99823.07
2023-02-21T00:11:01.119Z,99818.85
2023-02-21T00:13:32.584Z,99816.73
2023-02-21T00:16:04.339Z,99816.10
2023-02-21T00:18:35.804Z,99815.92
2023-02-21T00:21:06.732Z,99817.36
2023-02-21T00:23:38.031Z,99812.90
2023-02-21T00:26:11.609Z,99816.27
2023-02-21T00:28:42.819Z,99816.72
2023-02-21T00:31:14.131Z,99811.04
2023-02-21T00:33:45.307Z,99812.63
2023-02-21T00:36:16.204Z,99814.17
2023-02-21T00:38:47.496Z,99816.12
2023-02-21T00:41:18.568Z,99815.59
2023-02-21T00:43:51.636Z,99813.88
2023-02-21T00:46:23.344Z,99814.12
2023-02-21T00:48:54.657Z,99819.03
2023-02-21T00:51:25.849Z,99819.92
2023-02-21T00:53:57.282Z,99824.48
2023-02-21T00:56:28.705Z,99822.91
2023-02-21T00:59:00.106Z,99818.79
2023-02-21T01:01:31.347Z,99818.50
2023-02-21T01:04:02.885Z,99815.79
2023-02-21T01:06:34.040Z,99810.36
2023-02-21T01:09:05.938Z,99801.16
2023-02-21T01:11:39.424Z,99810.17
2023-02-21T01:14:10.732Z,99804.52
2023-02-21T01:16:41.639Z,99799.98
2023-02-21T01:19:12.845Z,99791.21
2023-02-21T01:21:43.770Z,99799.45
2023-02-21T01:24:15.001Z,99803.21
2023-02-21T01:26:46.087Z,99800.06
2023-02-21T01:29:17.450Z,99797.50
2023-02-21T01:31:48.400Z,99801.77
2023-02-21T01:34:19.616Z,99791.77
2023-02-21T01:36:50.703Z,99787.14
2023-02-21T01:39:22.145Z,99793.63
2023-02-21T01:41:53.156Z,99790.16
2023-02-21T01:44:46.018Z,99799.29
2023-02-21T01:47:17.106Z,99798.72
2023-02-21T01:49:48.928Z,99798.77
2023-02-21T01:52:22.405Z,99794.23
2023-02-21T01:54:59.143Z,99797.42
2023-02-21T01:57:31.501Z,99801.71
2023-02-21T02:00:03.372Z,99795.59
2023-02-21T02:02:45.500Z,99794.79
2023-02-21T02:05:18.379Z,99797.40
2023-02-21T02:07:49.857Z,99795.75
2023-02-21T02:10:20.869Z,99788.77
2023-02-21T02:13:00.228Z,99776.42
2023-02-21T02:15:43.567Z,99786.18
2023-02-21T02:18:18.375Z,99787.03
2023-02-21T02:20:39.675Z,99778.94
2023-02-21T02:23:21.506Z,99778.59
2023-02-21T02:25:55.863Z,99781.48
2023-02-21T02:28:41.554Z,99770.20
2023-02-21T02:31:29.752Z,99773.63
2023-02-21T02:34:12.062Z,99775.84
2023-02-21T02:36:34.275Z,99775.02
2023-02-21T02:39:12.086Z,99778.65
2023-02-21T02:41:44.222Z,99779.13
2023-02-21T02:44:09.571Z,99773.44
2023-02-21T02:46:27.118Z,99777.22
2023-02-21T02:49:17.340Z,99773.84
2023-02-21T02:51:32.665Z,99774.50
2023-02-21T02:53:45.251Z,99776.77
2023-02-21T02:56:03.478Z,99769.91
2023-02-21T02:58:18.384Z,99779.73
2023-02-21T03:00:34.621Z,99776.71
2023-02-21T03:03:07.514Z,99774.11
2023-02-21T03:05:31.836Z,99781.88
2023-02-21T03:07:44.400Z,99777.40
2023-02-21T03:10:32.433Z,99771.01
2023-02-21T03:12:54.430Z,99768.77
2023-02-21T03:15:21.786Z,99758.67
2023-02-21T03:17:40.227Z,99763.02
2023-02-21T03:19:56.468Z,99763.59
2023-02-21T03:22:13.730Z,99762.89
2023-02-21T03:24:27.798Z,99769.39
2023-02-21T03:26:43.634Z,99766.96
2023-02-21T03:28:56.872Z,99763.13
2023-02-21T03:31:13.264Z,99765.03
2023-02-21T03:33:26.525Z,99763.48
2023-02-21T03:35:39.099Z,99758.30
2023-02-21T03:37:53.544Z,99758.89
2023-02-21T03:40:12.602Z,99759.45
2023-02-21T03:42:25.173Z,99756.98
2023-02-21T03:44:37.732Z,99755.17
2023-02-21T03:46:50.336Z,99759.70
2023-02-21T03:49:02.968Z,99756.79
2023-02-21T03:51:15.824Z,99760.27
2023-02-21T03:53:28.493Z,99766.27
2023-02-21T03:55:41.043Z,99764.11
2023-02-21T03:57:53.628Z,99760.17
2023-02-21T04:00:07.050Z,99757.75
2023-02-21T04:02:20.116Z,99760.70
2023-02-21T04:04:32.813Z,99761.02
2023-02-21T04:06:45.388Z,99760.24
2023-02-21T04:08:57.981Z,99767.48
2023-02-21T04:11:10.558Z,99767.77
2023-02-21T04:13:24.490Z,99764.48
2023-02-21T04:15:37.100Z,99759.77
2023-02-21T04:17:49.627Z,99756.64
2023-02-21T04:20:02.170Z,99752.39
2023-02-21T04:22:14.700Z,99753.38
2023-02-21T04:24:27.323Z,99761.64
2023-02-21T04:26:39.985Z,99759.95
2023-02-21T04:28:52.854Z,99767.70
2023-02-21T04:31:05.451Z,99763.05
2023-02-21T04:33:17.956Z,99764.13
2023-02-21T04:35:30.646Z,99763.52
2023-02-21T04:37:45.047Z,99768.71
2023-02-21T04:39:57.584Z,99767.38
2023-02-21T04:42:10.149Z,99767.04
2023-02-21T04:44:22.793Z,99763.02
2023-02-21T04:46:35.436Z,99764.20
2023-02-21T04:48:50.289Z,99758.85
2023-02-21T04:51:14.711Z,99761.86
2023-02-21T04:53:28.129Z,99764.86
2023-02-21T04:55:40.700Z,99766.22
2023-02-21T04:57:53.225Z,99761.56
2023-02-21T05:00:07.406Z,99764.05
2023-02-21T05:02:19.941Z,99768.97
2023-02-21T05:04:32.626Z,99766.20
2023-02-21T05:06:45.208Z,99766.95
2023-02-21T05:08:58.656Z,99769.15
2023-02-21T05:11:11.204Z,99763.02
2023-02-21T05:13:23.856Z,99767.69
2023-02-21T05:15:36.427Z,99767.70
2023-02-21T05:17:48.977Z,99769.26
2023-02-21T05:20:02.155Z,99767.64
2023-02-21T05:22:20.216Z,99763.38
2023-02-21T05:24:33.111Z,99762.00
2023-02-21T05:26:45.567Z,99759.77
2023-02-21T05:28:59.491Z,99761.53
2023-02-21T05:31:12.121Z,99765.33
2023-02-21T05:33:24.974Z,99760.55
2023-02-21T05:35:37.488Z,99757.73
2023-02-21T05:37:50.076Z,99762.38
2023-02-21T05:42:37.387Z,99760.77
2023-02-21T05:44:49.988Z,99760.14
2023-02-21T05:47:07.078Z,99762.67
2023-02-21T05:49:19.802Z,99765.80
2023-02-21T05:51:50.944Z,99769.14
2023-02-21T05:54:04.987Z,99767.02
2023-02-21T05:56:19.528Z,99769.30
2023-02-21T05:58:32.208Z,99764.13
2023-02-21T06:00:45.073Z,99774.70
2023-02-21T06:02:57.868Z,99779.21
2023-02-21T06:05:13.057Z,99782.59
2023-02-21T06:07:25.599Z,99787.44
2023-02-21T06:09:38.391Z,99789.23
2023-02-21T06:11:55.966Z,99793.67
2023-02-21T06:14:22.397Z,99799.05
2023-02-21T06:16:36.660Z,99795.06
2023-02-21T06:18:54.255Z,99805.19
2023-02-21T06:21:06.856Z,99804.20
2023-02-21T06:23:19.390Z,99809.32
2023-02-21T06:25:31.911Z,99809.96
2023-02-21T06:27:44.442Z,99814.79
2023-02-21T06:29:57.089Z,99820.07
2023-02-21T06:32:09.677Z,99823.50
2023-02-21T06:34:22.263Z,99823.42
2023-02-21T06:36:35.662Z,99820.57
2023-02-21T06:38:51.267Z,99828.04
2023-02-21T06:41:10.014Z,99828.09
2023-02-21T06:43:22.778Z,99831.88
2023-02-21T06:45:35.319Z,99837.93
2023-02-21T06:47:48.008Z,99841.05
2023-02-21T06:50:00.570Z,99840.63
2023-02-21T06:52:13.786Z,99839.73
2023-02-21T06:54:26.494Z,99842.30
2023-02-21T06:56:39.577Z,99846.41
2023-02-21T06:58:52.182Z,99848.19
2023-02-21T07:01:04.823Z,99849.05
2023-02-21T07:03:17.349Z,99848.62
2023-02-21T07:05:34.448Z,99849.70
2023-02-21T07:07:47.062Z,99845.81
2023-02-21T07:09:59.910Z,99853.02
2023-02-21T07:12:12.662Z,99854.39
2023-02-21T07:14:25.213Z,99849.52
2023-02-21T07:16:37.791Z,99857.38
2023-02-21T07:18:50.523Z,99861.68
2023-02-21T07:21:03.135Z,99863.13
2023-02-21T07:23:16.182Z,99865.27
2023-02-21T07:25:32.865Z,99868.64
2023-02-21T07:27:47.621Z,99871.24
2023-02-21T07:30:00.150Z,99872.61
2023-02-21T07:32:12.806Z,99874.36
2023-02-21T07:34:25.360Z,99877.19
2023-02-21T07:36:40.172Z,99883.55
2023-02-21T07:38:52.966Z,99880.00
2023-02-21T07:41:05.594Z,99882.13
2023-02-21T07:43:18.100Z,99881.86
2023-02-21T07:45:30.701Z,99880.31
2023-02-21T07:47:47.860Z,99885.15
2023-02-21T07:50:00.736Z,99884.53
2023-02-21T07:52:13.341Z,99889.95
2023-02-21T07:54:25.912Z,99891.39
2023-02-21T07:56:46.367Z,99892.60
2023-02-21T07:58:58.919Z,99898.52
2023-02-21T08:01:11.519Z,99904.23
2023-02-21T08:03:24.088Z,99902.60
2023-02-21T08:05:36.748Z,99906.56
2023-02-21T08:07:49.300Z,99907.55
2023-02-21T08:10:01.913Z,99904.61
2023-02-21T08:12:14.421Z,99907.52
2023-02-21T08:14:27.151Z,99910.80
2023-02-21T08:16:39.778Z,99907.04
2023-02-21T08:18:52.559Z,99914.02
2023-02-21T08:21:08.954Z,99917.31
2023-02-21T08:23:22.180Z,99917.93
2023-02-21T08:25:34.703Z,99923.95
2023-02-21T08:27:53.365Z,99919.84
2023-02-21T08:30:06.792Z,99922.92
2023-02-21T08:32:20.270Z,99927.37
2023-02-21T08:34:32.896Z,99925.92
2023-02-21T08:36:45.438Z,99919.55
2023-02-21T08:38:57.960Z,99921.55
2023-02-21T08:41:10.668Z,99919.82
2023-02-21T08:43:24.190Z,99922.70
2023-02-21T08:45:36.762Z,99921.30
2023-02-21T08:47:50.412Z,99917.11
2023-02-21T08:50:03.588Z,99922.37
2023-02-21T08:52:17.820Z,99924.02
2023-02-21T08:54:30.694Z,99922.63
2023-02-21T08:56:43.265Z,99929.20
2023-02-21T08:58:55.898Z,99929.08
2023-02-21T09:01:08.508Z,99929.05
2023-02-21T09:03:21.045Z,99928.30
2023-02-21T09:05:33.574Z,99929.50
2023-02-21T09:07:50.188Z,99930.10
2023-02-21T09:10:03.540Z,99935.30
2023-02-21T09:12:16.179Z,99925.69
2023-02-21T09:14:28.676Z,99923.27
2023-02-21T09:16:42.828Z,99927.28
2023-02-21T09:18:59.071Z,99929.58
2023-02-21T09:21:11.826Z,99930.55
2023-02-21T09:23:26.490Z,99927.73
2023-02-21T09:25:39.061Z,99929.36
2023-02-21T09:27:54.394Z,99936.56
2023-02-21T09:30:15.193Z,99935.73
2023-02-21T09:32:28.809Z,99927.14
2023-02-21T09:34:41.682Z,99926.20
2023-02-21T09:36:57.454Z,99925.63
2023-02-21T09:39:11.095Z,99932.80
2023-02-21T09:41:23.733Z,99932.66
2023-02-21T09:43:39.335Z,99931.70
2023-02-21T09:45:54.950Z,99934.87
2023-02-21T09:48:19.779Z,99939.80
2023-02-21T09:50:39.811Z,99935.65
2023-02-21T09:52:52.408Z,99943.73
2023-02-21T09:55:20.762Z,99947.27
2023-02-21T09:57:33.315Z,99945.90
2023-02-21T09:59:46.283Z,99946.39
2023-02-21T10:02:10.748Z,99948.44
2023-02-21T10:04:38.231Z,99949.42
2023-02-21T10:06:57.475Z,99950.64
2023-02-21T10:09:38.384Z,99946.45
2023-02-21T10:12:17.936Z,99958.24
2023-02-21T10:14:41.941Z,99951.51
2023-02-21T10:17:16.973Z,99957.41
2023-02-21T10:19:36.174Z,99973.28
2023-02-21T10:21:49.638Z,99971.46
2023-02-21T10:24:10.502Z,99975.74
2023-02-21T10:26:31.027Z,99982.89
2023-02-21T10:28:44.092Z,99986.41
2023-02-21T10:31:03.282Z,99984.01
2023-02-21T10:33:16.339Z,99989.84
2023-02-21T10:35:28.887Z,99985.42
2023-02-21T10:37:46.917Z,99983.06
2023-02-21T10:40:08.113Z,99980.85
2023-02-21T10:42:34.410Z,99981.86
2023-02-21T10:44:47.117Z,99985.61
2023-02-21T10:47:06.802Z,99993.75
2023-02-21T10:49:29.291Z,99997.23
2023-02-21T10:51:41.906Z,100008.52
2023-02-21T10:53:54.470Z,100013.29
2023-02-21T10:56:18.284Z,100009.35
2023-02-21T10:58:30.889Z,100005.28
2023-02-21T11:00:48.653Z,100003.48
2023-02-21T11:03:14.414Z,100000.52
2023-02-21T11:05:27.287Z,100003.84
2023-02-21T11:07:41.752Z,100002.66
2023-02-21T11:09:55.716Z,100007.67
2023-02-21T11:12:22.195Z,100010.33
2023-02-21T11:14:35.160Z,100003.98
2023-02-21T11:17:15.508Z,100005.02
2023-02-21T11:19:28.136Z,99992.68
2023-02-21T11:21:45.048Z,100006.09
2023-02-21T11:24:04.622Z,100005.55
2023-02-21T11:26:17.265Z,100001.71
2023-02-21T11:28:29.925Z,99998.08
2023-02-21T11:30:51.099Z,99998.16
2023-02-21T11:33:05.996Z,100001.45
2023-02-21T11:35:30.791Z,100006.26
2023-02-21T11:37:49.585Z,100008.43
2023-02-21T11:40:02.684Z,100001.61
2023-02-21T11:42:30.924Z,99999.66
2023-02-21T11:44:43.621Z,99997.08
2023-02-21T11:47:23.122Z,100000.03
2023-02-21T11:50:01.677Z,100005.84
2023-02-21T11:52:19.495Z,100006.19
2023-02-21T11:54:32.598Z,100008.10
2023-02-21T11:57:02.260Z,100014.05
2023-02-21T11:59:33.220Z,100016.14
2023-02-21T12:02:17.878Z,100015.96
2023-02-21T12:04:40.325Z,100020.77
2023-02-21T12:07:15.352Z,100014.09
2023-02-21T12:09:47.482Z,100020.63
2023-02-21T12:12:23.259Z,100022.83
2023-02-21T12:14:38.605Z,100025.77
2023-02-21T12:17:15.074Z,100022.90
2023-02-21T12:19:36.937Z,100016.48
2023-02-21T12:22:12.076Z,100014.60
2023-02-21T12:24:40.694Z,100015.30
2023-02-21T12:27:11.687Z,100013.10
2023-02-21T12:29:41.187Z,100012.02
2023-02-21T12:32:12.741Z,100019.45
2023-02-21T12:34:34.473Z,100020.27
2023-02-21T12:36:56.069Z,100021.88
2023-02-21T12:39:36.073Z,100016.95
2023-02-21T12:42:21.339Z,100019.64
2023-02-21T12:44:42.030Z,100021.84
2023-02-21T12:47:37.328Z,100017.02
2023-02-21T12:50:01.682Z,100017.65
2023-02-21T12:52:16.137Z,100016.55
2023-02-21T12:54:40.993Z,100016.21
2023-02-21T12:57:04.959Z,100023.85
2023-02-21T12:59:27.257Z,100018.22
2023-02-21T13:01:46.338Z,100013.88
2023-02-21T13:04:20.923Z,100011.11
2023-02-21T13:06:39.242Z,100009.52
2023-02-21T13:09:29.454Z,100009.17
2023-02-21T13:12:15.952Z,100011.30
2023-02-21T13:14:41.415Z,100010.48
2023-02-21T13:16:54.165Z,100006.68
2023-02-21T13:19:11.364Z,100005.55
2023-02-21T13:21:54.746Z,100005.40
2023-02-21T13:24:30.956Z,100012.34
2023-02-21T13:27:08.423Z,100009.08
2023-02-21T13:29:28.307Z,100005.46
2023-02-21T13:31:43.312Z,100004.17
2023-02-21T13:33:59.781Z,100001.09
2023-02-21T13:36:29.531Z,100000.78
2023-02-21T13:38:43.243Z,99996.05
2023-02-21T13:41:16.796Z,100002.77
2023-02-21T13:43:33.139Z,100001.71
2023-02-21T13:45:45.660Z,100007.19
2023-02-21T13:47:58.371Z,99995.05
2023-02-21T13:50:39.201Z,100005.14
2023-02-21T13:53:02.990Z,100001.23
2023-02-21T13:55:15.827Z,100004.80
2023-02-21T13:57:33.179Z,100007.14
2023-02-21T13:59:45.769Z,100010.99
2023-02-21T14:02:32.783Z,100006.67
2023-02-21T14:04:57.669Z,100010.36
2023-02-21T14:07:10.340Z,100016.28
2023-02-21T14:09:23.029Z,100014.60
2023-02-21T14:11:44.291Z,100013.70
2023-02-21T14:14:04.196Z,100017.52
2023-02-21T14:16:46.105Z,100015.56
2023-02-21T14:19:11.056Z,100017.86
2023-02-21T14:21:35.615Z,100014.86
2023-02-21T14:24:13.167Z,100021.70
2023-02-21T14:26:52.057Z,100016.96
2023-02-21T14:29:07.382Z,100017.48
2023-02-21T14:31:49.720Z,100019.65
2023-02-21T14:34:03.637Z,100023.13
2023-02-21T14:36:18.674Z,100030.27
2023-02-21T14:38:39.068Z,100029.71
2023-02-21T14:40:58.919Z,100031.35
2023-02-21T14:44:00.037Z,100032.16
2023-02-21T14:46:34.590Z,100035.45
2023-02-21T14:49:37.250Z,100031.74
2023-02-21T14:52:05.675Z,100038.28
2023-02-21T14:54:58.555Z,100042.16
2023-02-21T14:57:41.091Z,100046.81
2023-02-21T15:00:18.960Z,100047.34
2023-02-21T15:02:52.021Z,100048.20
2023-02-21T15:05:26.494Z,100048.90
2023-02-21T15:07:56.054Z,100049.49
2023-02-21T15:10:15.001Z,100050.77
2023-02-21T15:12:27.929Z,100051.13
2023-02-21T15:14:47.714Z,100051.88
2023-02-21T15:17:12.080Z,100056.24
2023-02-21T15:19:30.328Z,100049.89
2023-02-21T15:21:42.868Z,100057.88
2023-02-21T15:24:12.808Z,100058.90
2023-02-21T15:26:30.104Z,100061.01
2023-02-21T15:28:42.765Z,100058.97
2023-02-21T15:31:00.266Z,100066.96
2023-02-21T15:33:19.464Z,100065.33
2023-02-21T15:35:36.470Z,100070.67
2023-02-21T15:37:49.152Z,100068.36
2023-02-21T15:40:12.102Z,100071.65
2023-02-21T15:42:27.560Z,100070.17
2023-02-21T15:44:55.376Z,100069.41
2023-02-21T15:47:12.758Z,100071.25
2023-02-21T15:49:31.727Z,100070.05
2023-02-21T15:51:44.658Z,100070.41
2023-02-21T15:54:38.307Z,100074.85
2023-02-21T15:57:24.902Z,100080.69
2023-02-21T15:59:39.040Z,100082.84
2023-02-21T16:02:22.508Z,100090.55
2023-02-21T16:04:37.258Z,100092.26
2023-02-21T16:06:57.707Z,100096.40
2023-02-21T16:09:17.011Z,100098.88
2023-02-21T16:11:48.137Z,100098.79
2023-02-21T16:14:02.461Z,100102.91
2023-02-21T16:16:16.370Z,100109.20
2023-02-21T16:18:29.113Z,100117.06
2023-02-21T16:20:43.599Z,100120.74
2023-02-21T16:23:23.180Z,100127.05
2023-02-21T16:25:35.900Z,100130.05
2023-02-21T16:27:58.025Z,100132.06
2023-02-21T16:30:17.098Z,100137.11
2023-02-21T16:32:29.745Z,100142.16
2023-02-21T16:34:42.559Z,100143.75
2023-02-21T16:37:01.920Z,100149.76
2023-02-21T16:39:14.426Z,100157.00
2023-02-21T16:41:27.520Z,100156.17
2023-02-21T16:43:40.102Z,100155.65
2023-02-21T16:45:55.753Z,100162.34
2023-02-21T16:48:16.442Z,100162.70
2023-02-21T16:50:34.927Z,100165.15
2023-02-21T16:52:47.594Z,100172.27
2023-02-21T16:55:00.184Z,100174.05
2023-02-21T16:57:12.880Z,100175.86
2023-02-21T16:59:25.509Z,100180.08
2023-02-21T17:01:39.052Z,100190.36
2023-02-21T17:03:53.812Z,100195.42
2023-02-21T17:06:07.026Z,100197.14
2023-02-21T17:08:19.785Z,100203.95
2023-02-21T17:10:32.807Z,100204.60
2023-02-21T17:12:45.388Z,100211.05
2023-02-21T17:14:57.932Z,100213.66
2023-02-21T17:17:10.478Z,100217.03
2023-02-21T17:19:25.396Z,100222.50
2023-02-21T17:21:38.484Z,100223.83
2023-02-21T17:23:50.991Z,100226.69
2023-02-21T17:26:04.224Z,100229.46
2023-02-21T17:28:17.087Z,100230.14
2023-02-21T17:30:31.276Z,100241.12
2023-02-21T17:32:46.885Z,100240.61
2023-02-21T17:34:59.788Z,100241.02
2023-02-21T17:37:12.388Z,100237.87
2023-02-21T17:39:25.717Z,100240.17
2023-02-21T17:41:45.574Z,100247.56
2023-02-21T17:43:58.191Z,100252.02
2023-02-21T17:46:11.857Z,100256.05
2023-02-21T17:48:24.409Z,100257.22
2023-02-21T17:50:37.164Z,100258.86
2023-02-21T17:52:51.474Z,100260.56
2023-02-21T17:55:07.890Z,100260.59
2023-02-21T17:57:21.776Z,100264.25
2023-02-21T17:59:35.555Z,100265.98
2023-02-21T18:01:48.223Z,100267.16
2023-02-21T18:04:03.570Z,100270.97
2023-02-21T18:06:16.758Z,100268.77
2023-02-21T18:08:29.329Z,100273.96
2023-02-21T18:10:46.079Z,100272.33
2023-02-21T18:12:58.644Z,100273.75
2023-02-21T18:15:11.366Z,100274.38
2023-02-21T18:17:23.879Z,100277.30
2023-02-21T18:19:36.732Z,100277.83
2023-02-21T18:21:49.483Z,100281.02
2023-02-21T18:24:02.277Z,100283.52
2023-02-21T18:26:15.752Z,100284.24
2023-02-21T18:28:29.673Z,100281.20
2023-02-21T18:30:42.273Z,100286.48
2023-02-21T18:32:55.273Z,100288.66
2023-02-21T18:35:08.021Z,100286.05
2023-02-21T18:37:20.577Z,100287.20
2023-02-21T18:39:33.346Z,100290.92
2023-02-21T18:41:46.172Z,100290.85
2023-02-21T18:43:58.758Z,100292.10
2023-02-21T18:46:14.441Z,100293.06
2023-02-21T18:48:27.349Z,100290.41
2023-02-21T18:50:40.030Z,100289.36
2023-02-21T18:52:52.571Z,100291.82
2023-02-21T18:55:06.088Z,100295.18
2023-02-21T18:57:21.602Z,100301.09
2023-02-21T18:59:34.828Z,100301.08
2023-02-21T19:01:49.306Z,100305.20
2023-02-21T19:04:03.555Z,100309.34
2023-02-21T19:06:18.301Z,100305.72
2023-02-21T19:08:30.783Z,100305.66
2023-02-21T19:10:43.381Z,100312.29
2023-02-21T19:12:59.389Z,100314.74
2023-02-21T19:15:12.123Z,100314.30
2023-02-21T19:17:24.887Z,100313.30
2023-02-21T19:19:37.795Z,100315.55
2023-02-21T19:21:50.368Z,100316.33
2023-02-21T19:24:04.186Z,100317.63
2023-02-21T19:26:17.489Z,100320.47
2023-02-21T19:28:30.050Z,100321.89
2023-02-21T19:30:42.918Z,100326.96
2023-02-21T19:33:01.868Z,100328.88
2023-02-21T19:35:14.385Z,100331.02
2023-02-21T19:37:26.945Z,100333.80
2023-02-21T19:39:39.546Z,100337.77
2023-02-21T19:41:52.068Z,100336.73
2023-02-21T19:44:05.354Z,100336.42
2023-02-21T19:46:26.529Z,100336.20
2023-02-21T19:48:39.064Z,100338.66
2023-02-21T19:50:52.021Z,100337.98
2023-02-21T19:53:04.785Z,100338.50
2023-02-21T19:55:17.360Z,100339.95
2023-02-21T19:57:30.001Z,100345.77
2023-02-21T19:59:42.828Z,100348.55
2023-02-21T20:01:56.186Z,100348.76
2023-02-21T20:04:09.183Z,100354.85
2023-02-21T20:06:24.849Z,100357.84
2023-02-21T20:08:37.434Z,100362.36
2023-02-21T20:10:50.037Z,100359.27
2023-02-21T20:13:06.570Z,100363.07
2023-02-21T20:15:19.391Z,100362.52
2023-02-21T20:17:35.177Z,100359.72
2023-02-21T20:19:47.718Z,100363.84
2023-02-21T20:22:00.438Z,100361.35
2023-02-21T20:24:13.220Z,100364.26
2023-02-21T20:26:26.546Z,100363.75
2023-02-21T20:28:39.579Z,100367.98
2023-02-21T20:30:52.315Z,100370.38
2023-02-21T20:33:06.768Z,100372.38
2023-02-21T20:35:19.402Z,100373.55
2023-02-21T20:37:32.595Z,100376.71
2023-02-21T20:39:45.280Z,100382.59
2023-02-21T20:42:00.952Z,100384.98
2023-02-21T20:44:14.613Z,100385.84
2023-02-21T20:46:28.973Z,100386.89
2023-02-21T20:48:41.775Z,100387.64
2023-02-21T20:50:54.296Z,100384.59
2023-02-21T20:53:07.155Z,100385.63
2023-02-21T20:55:22.200Z,100388.08
2023-02-21T20:57:35.167Z,100388.70
2023-02-21T20:59:47.888Z,100388.91
2023-02-21T21:02:01.555Z,100391.19
2023-02-21T21:04:17.491Z,100388.98
2023-02-21T21:06:30.404Z,100389.19
2023-02-21T21:08:42.986Z,100390.77
2023-02-21T21:10:55.639Z,100392.52
2023-02-21T21:13:08.340Z,100393.79
2023-02-21T21:15:21.710Z,100396.94
2023-02-21T21:17:35.585Z,100399.77
2023-02-21T21:19:49.269Z,100397.02
2023-02-21T21:22:05.060Z,100398.90
2023-02-21T21:24:17.760Z,100402.05
2023-02-21T21:26:30.337Z,100401.48
2023-02-21T21:28:43.361Z,100403.78
2023-02-21T21:30:55.972Z,100403.14
2023-02-21T21:33:08.556Z,100402.88
2023-02-21T21:35:21.196Z,100403.78
2023-02-21T21:37:35.119Z,100409.52
2023-02-21T21:39:54.810Z,100411.60
2023-02-21T21:42:09.536Z,100414.88
2023-02-21T21:44:23.372Z,100418.46
2023-02-21T21:46:37.942Z,100419.30
2023-02-21T21:48:50.528Z,100420.86
2023-02-21T21:51:03.713Z,100419.86
2023-02-21T21:53:16.739Z,100419.20
2023-02-21T21:55:30.172Z,100420.80
2023-02-21T21:57:42.806Z,100424.92
2023-02-21T21:59:55.473Z,100426.27
2023-02-21T22:02:10.242Z,100424.52
2023-02-21T22:04:23.967Z,100421.58
2023-02-21T22:06:37.553Z,100421.59
2023-02-21T22:08:50.107Z,100419.33
2023-02-21T22:11:02.682Z,100417.23
2023-02-21T22:13:19.919Z,100419.14
2023-02-21T22:15:33.544Z,100417.45
2023-02-21T22:17:46.666Z,100422.98
2023-02-21T22:19:59.256Z,100423.98
2023-02-21T22:22:13.665Z,100425.52
2023-02-21T22:24:26.265Z,100425.84
2023-02-21T22:26:39.698Z,100427.50
2023-02-21T22:28:52.763Z,100429.45
2023-02-21T22:31:08.682Z,100431.90
2023-02-21T22:33:22.488Z,100433.66
2023-02-21T22:35:35.187Z,100431.27
2023-02-21T22:37:52.689Z,100434.36
2023-02-21T22:40:05.555Z,100438.23
2023-02-21T22:42:18.475Z,100438.27
2023-02-21T22:44:30.984Z,100438.83
2023-02-21T22:46:46.806Z,100439.90
2023-02-21T22:48:59.432Z,100438.77
2023-02-21T22:51:15.169Z,100441.88
2023-02-21T22:53:27.974Z,100442.11
2023-02-21T22:55:40.488Z,100442.64
2023-02-21T22:57:55.305Z,100440.51
2023-02-21T23:00:19.104Z,100442.28
2023-02-21T23:02:31.824Z,100444.20
2023-02-21T23:04:46.589Z,100445.77
2023-02-21T23:07:00.281Z,100448.20
2023-02-21T23:09:14.276Z,100447.35
2023-02-21T23:11:26.894Z,100447.95
2023-02-21T23:13:39.518Z,100451.09
2023-02-21T23:15:55.904Z,100449.92
2023-02-21T23:18:13.136Z,100447.92
2023-02-21T23:20:29.647Z,100449.55
2023-02-21T23:22:48.655Z,100455.61
2023-02-21T23:25:02.019Z,100456.88
2023-02-21T23:27:14.763Z,100453.29
2023-02-21T23:29:27.472Z,100454.70
2023-02-21T23:31:41.049Z,100457.36
2023-02-21T23:33:53.801Z,100457.66
2023-02-21T23:36:07.473Z,100458.15
2023-02-21T23:38:23.004Z,100458.28
2023-02-21T23:40:39.242Z,100460.51
2023-02-21T23:42:56.924Z,100462.20
2023-02-21T23:45:11.256Z,100461.16
2023-02-21T23:47:23.995Z,100458.02
2023-02-21T23:49:43.994Z,100461.05
2023-02-21T23:51:56.650Z,100461.67
2023-02-21T23:54:09.984Z,100460.23
2023-02-21T23:56:22.884Z,100463.08
2023-02-21T23:58:35.527Z,100459.92
